Time;durP1;ratioP1;P1;durP2;ratioP2;P2;SDS_P1;SDS_P2;PMS_P1;PMS_P2;Temp;Humidity;BMP_temperature;BMP_pressure;BME280_temperature;BME280_humidity;BME280_pressure;Samples;Min_cycle;Max_cycle;Signal;HPM_P1;HPM_P2
2022/09/13 00:03:56;;;;;;;25.20;10.80;;;;;12.00;96095.00;;;;8395978;28;20222;-64
2022/09/13 00:08:00;;;;;;;17.98;8.52;;;;;11.90;96093.00;;;;8394891;28;20217;-65
2022/09/13 00:12:34;;;;;;;29.45;11.38;;;;;11.80;96083.00;;;;8395364;28;20220;-65
2022/09/13 00:16:37;;;;;;;19.52;9.38;;;;;11.80;96086.00;;;;8395009;28;20223;-64
2022/09/13 00:20:41;;;;;;;34.35;11.75;;;;;11.80;96078.00;;;;8395321;28;20553;-64
2022/09/13 00:24:45;;;;;;;25.25;10.75;;;;;11.70;96086.00;;;;8395182;28;20278;-64
2022/09/13 00:28:50;;;;;;;22.23;10.57;;;;;11.70;96086.00;;;;8395184;28;20530;-64
2022/09/13 00:33:24;;;;;;;23.48;10.73;;;;;11.70;96073.00;;;;8394526;28;20220;-64
2022/09/13 00:37:27;;;;;;;21.38;8.98;;;;;11.70;96071.00;;;;8395086;28;20213;-64
2022/09/13 00:41:32;;;;;;;21.38;10.07;;;;;11.80;96063.00;;;;8394682;28;20638;-64
2022/09/13 00:45:35;;;;;;;46.38;10.52;;;;;11.70;96062.00;;;;8395169;28;20232;-64
2022/09/13 00:49:41;;;;;;;34.15;12.73;;;;;11.60;96055.00;;;;8394620;28;20237;-64
2022/09/13 00:53:47;;;;;;;28.73;11.93;;;;;11.70;96061.00;;;;8394943;28;20229;-64
2022/09/13 00:58:21;;;;;;;25.08;10.63;;;;;11.70;96060.00;;;;8394204;28;20664;-64
2022/09/13 01:02:27;;;;;;;25.15;11.75;;;;;11.70;96059.00;;;;8394695;28;20222;-64
2022/09/13 01:06:33;;;;;;;33.85;12.32;;;;;11.70;96045.00;;;;8394125;28;20218;-64
2022/09/13 01:10:39;;;;;;;32.63;12.07;;;;;11.70;96043.00;;;;8394879;28;20231;-64
2022/09/13 01:14:43;;;;;;;25.35;10.50;;;;;11.60;96057.00;;;;8394058;28;20681;-64
2022/09/13 01:19:24;;;;;;;21.92;10.25;;;;;11.50;96051.00;;;;8394730;28;20601;-64
2022/09/13 01:24:05;;;;;;;25.17;10.18;;;;;11.40;96046.00;;;;8394142;28;20216;-64
2022/09/13 01:28:39;;;;;;;22.75;9.82;;;;;11.40;96045.00;;;;8394090;28;20534;-64
2022/09/13 01:33:23;;;;;;;20.52;9.48;;;;;11.20;96050.00;;;;8394071;28;20224;-64
2022/09/13 01:37:46;;;;;;;17.05;8.75;;;;;11.20;96049.00;;;;8393202;28;20237;-64
2022/09/13 01:42:01;;;;;;;21.20;9.73;;;;;11.20;96036.00;;;;8393733;28;20224;-64
2022/09/13 01:46:06;;;;;;;23.02;10.13;;;;;11.20;96027.00;;;;8393667;28;20221;-65
2022/09/13 01:50:16;;;;;;;25.58;9.80;;;;;11.20;96026.00;;;;8394040;28;20231;-64
2022/09/13 01:54:24;;;;;;;24.27;10.40;;;;;11.10;96024.00;;;;8393611;28;20688;-64
2022/09/13 01:58:57;;;;;;;35.83;11.57;;;;;11.00;96021.00;;;;8393899;28;20557;-64
2022/09/13 02:03:05;;;;;;;26.10;10.52;;;;;11.00;96026.00;;;;8393158;28;20215;-64
2022/09/13 02:07:14;;;;;;;25.53;11.03;;;;;11.10;96035.00;;;;8393406;28;20219;-64
2022/09/13 02:11:19;;;;;;;32.70;11.63;;;;;11.10;96037.00;;;;8397226;28;20670;-64
2022/09/13 02:20:45;;;;;;;18.30;9.33;;;;;11.20;96039.00;;;;8398203;28;20561;-64
2022/09/13 02:24:55;;;;;;;26.55;10.13;;;;;11.20;96034.00;;;;8399056;28;20231;-64
2022/09/13 02:29:02;;;;;;;25.52;10.93;;;;;11.10;96043.00;;;;8398705;28;20220;-64
2022/09/13 02:33:09;;;;;;;16.42;8.80;;;;;11.10;96041.00;;;;8397081;28;20244;-65
2022/09/13 02:37:13;;;;;;;18.20;8.98;;;;;11.10;96042.00;;;;8398513;28;20222;-64
2022/09/13 02:41:26;;;;;;;20.63;9.38;;;;;11.10;96038.00;;;;8398249;28;20220;-64
2022/09/13 02:45:33;;;;;;;19.00;8.95;;;;;11.10;96039.00;;;;8398539;28;20216;-64
2022/09/13 02:49:50;;;;;;;17.07;8.70;;;;;11.10;96050.00;;;;8397955;28;20258;-64
2022/09/13 02:54:23;;;;;;;17.98;8.73;;;;;11.00;96043.00;;;;8397863;28;20220;-64
2022/09/13 02:58:34;;;;;;;19.42;8.93;;;;;11.00;96052.00;;;;8398065;28;20223;-64
2022/09/13 03:02:39;;;;;;;18.38;9.60;;;;;11.00;96038.00;;;;8397351;28;20212;-64
2022/09/13 03:07:13;;;;;;;17.80;8.87;;;;;11.20;96033.00;;;;8397838;28;20311;-65
2022/09/13 03:11:29;;;;;;;48.93;11.27;;;;;11.20;96014.00;;;;8396860;28;20238;-64
2022/09/13 03:15:47;;;;;;;301.20;22.50;;;;;11.30;96007.00;;;;8397583;28;20622;-64
2022/09/13 03:20:05;;;;;;;452.97;32.70;;;;;11.20;95997.00;;;;8396991;28;20220;-64
2022/09/13 03:24:37;;;;;;;258.10;25.30;;;;;11.40;95982.00;;;;8396182;28;20223;-64
2022/09/13 03:28:53;;;;;;;1068.30;54.40;;;;;11.50;95982.00;;;;8396901;28;20226;-64
2022/09/13 03:33:07;;;;;;;107.20;22.67;;;;;11.70;95976.00;;;;8395932;28;25671;-64
2022/09/13 03:37:33;;;;;;;76.50;19.50;;;;;11.90;95987.00;;;;8396501;28;20235;-64
2022/09/13 03:41:42;;;;;;;894.92;46.42;;;;;12.10;95972.00;;;;8396300;28;20255;-64
2022/09/13 03:45:49;;;;;;;1079.10;58.88;;;;;12.30;95984.00;;;;8396684;28;20216;-64
2022/09/13 03:49:57;;;;;;;1037.10;53.83;;;;;12.30;95991.00;;;;8396109;28;20230;-64
2022/09/13 03:54:03;;;;;;;994.00;52.70;;;;;12.30;95998.00;;;;8396454;28;20225;-64
2022/09/13 03:58:34;;;;;;;389.77;31.52;;;;;12.40;95995.00;;;;8395253;28;20230;-63
2022/09/13 04:02:37;;;;;;;102.90;19.55;;;;;12.50;96001.00;;;;8395740;28;20249;-64
2022/09/13 04:06:41;;;;;;;373.23;24.63;;;;;12.40;95991.00;;;;8395151;28;20218;-64
2022/09/13 04:10:44;;;;;;;224.70;18.75;;;;;12.30;95994.00;;;;8393767;28;20260;-64
2022/09/13 04:14:48;;;;;;;176.32;18.60;;;;;12.20;95984.00;;;;8394920;28;20237;-65
2022/09/13 04:18:51;;;;;;;231.10;17.65;;;;;12.10;95978.00;;;;8395216;28;20224;-64
2022/09/13 04:22:56;;;;;;;345.98;24.10;;;;;12.10;95995.00;;;;8394645;28;20225;-65
2022/09/13 04:27:30;;;;;;;206.23;19.35;;;;;12.10;95989.00;;;;8395344;28;20244;-65
2022/09/13 04:31:33;;;;;;;365.27;26.42;;;;;12.20;96007.00;;;;8393461;28;20216;-65
2022/09/13 04:35:38;;;;;;;517.10;41.67;;;;;12.30;96004.00;;;;8394211;28;20308;-64
2022/09/13 04:40:11;;;;;;;478.48;37.50;;;;;12.40;96009.00;;;;8393986;28;20263;-65
2022/09/13 04:44:17;;;;;;;126.22;17.50;;;;;12.50;96003.00;;;;8394827;28;20215;-65
2022/09/13 04:48:20;;;;;;;124.00;17.17;;;;;12.50;95999.00;;;;8394426;28;20247;-65
2022/09/13 04:52:23;;;;;;;127.70;16.38;;;;;12.50;96004.00;;;;8395047;28;20688;-65
2022/09/13 04:56:27;;;;;;;110.20;15.65;;;;;12.60;96010.00;;;;8394600;28;20268;-64
2022/09/13 05:00:32;;;;;;;132.60;15.40;;;;;12.60;96023.00;;;;8394371;28;20762;-65
2022/09/13 05:04:35;;;;;;;141.85;16.48;;;;;12.60;96011.00;;;;8394830;28;20221;-65
2022/09/13 05:08:39;;;;;;;211.13;21.77;;;;;12.70;96002.00;;;;8394487;28;20217;-65
2022/09/13 05:13:12;;;;;;;200.13;19.52;;;;;12.70;96008.00;;;;8394236;28;20233;-65
2022/09/13 05:17:17;;;;;;;105.28;17.20;;;;;12.80;95998.00;;;;8393131;28;20230;-65
2022/09/13 05:21:21;;;;;;;392.88;26.10;;;;;12.90;96006.00;;;;8393665;28;20255;-65
2022/09/13 05:25:55;;;;;;;238.45;20.70;;;;;12.90;96003.00;;;;8393201;28;20225;-65
2022/09/13 05:29:58;;;;;;;260.13;21.40;;;;;12.90;96010.00;;;;8393562;28;20542;-65
2022/09/13 05:34:06;;;;;;;256.05;21.98;;;;;12.90;96016.00;;;;8393882;28;20249;-65
2022/09/13 05:38:09;;;;;;;342.35;23.80;;;;;12.90;96017.00;;;;8393591;28;20232;-65
2022/09/13 05:42:46;;;;;;;322.17;23.13;;;;;13.00;96018.00;;;;8392140;28;20229;-66
2022/09/13 05:46:49;;;;;;;163.50;18.33;;;;;12.90;96016.00;;;;8399822;28;20249;-65
2022/09/13 05:50:53;;;;;;;123.18;17.30;;;;;13.00;96021.00;;;;8399967;28;20223;-65
2022/09/13 05:55:00;;;;;;;216.20;20.48;;;;;13.10;96015.00;;;;8399475;28;20230;-65
2022/09/13 05:59:03;;;;;;;241.27;21.38;;;;;13.20;96017.00;;;;8399801;28;20240;-65
2022/09/13 06:03:06;;;;;;;250.60;24.13;;;;;13.30;96021.00;;;;8399020;28;20576;-65
2022/09/13 06:07:12;;;;;;;135.80;17.92;;;;;13.40;96017.00;;;;8399338;28;20228;-65
2022/09/13 06:11:46;;;;;;;251.02;22.75;;;;;13.50;96013.00;;;;8398261;28;20215;-65
2022/09/13 06:15:49;;;;;;;275.65;28.85;;;;;13.80;96002.00;;;;8399027;28;20238;-65
2022/09/13 06:19:52;;;;;;;373.02;31.23;;;;;14.10;96005.00;;;;8399422;28;20542;-65
2022/09/13 06:23:57;;;;;;;172.05;20.25;;;;;14.40;95982.00;;;;8398903;28;20221;-65
2022/09/13 06:28:00;;;;;;;167.50;22.58;;;;;14.60;95984.00;;;;8398835;28;20219;-65
2022/09/13 06:32:04;;;;;;;379.38;29.77;;;;;14.90;95990.00;;;;8398208;28;20231;-65
2022/09/13 06:36:09;;;;;;;277.42;23.98;;;;;15.10;95995.00;;;;8398955;28;20686;-65
2022/09/13 06:40:45;;;;;;;286.85;25.48;;;;;15.30;96016.00;;;;8398254;28;20224;-65
2022/09/13 06:44:50;;;;;;;250.98;24.73;;;;;15.50;96013.00;;;;8398205;28;20216;-65
2022/09/13 06:48:54;;;;;;;114.60;20.50;;;;;15.80;96020.00;;;;8397872;28;20538;-66
2022/09/13 06:52:57;;;;;;;190.98;23.58;;;;;16.10;96016.00;;;;8398045;28;20567;-65
2022/09/13 06:57:34;;;;;;;142.50;21.50;;;;;16.30;96013.00;;;;8397629;28;20231;-65
2022/09/13 07:01:39;;;;;;;139.65;19.67;;;;;16.50;96016.00;;;;8398152;28;20215;-65
2022/09/13 07:05:43;;;;;;;59.85;18.67;;;;;16.60;96004.00;;;;8397738;28;20223;-65
2022/09/13 07:09:46;;;;;;;52.72;18.05;;;;;16.80;96012.00;;;;8396887;28;20224;-65
2022/09/13 07:14:23;;;;;;;52.80;18.55;;;;;17.00;96021.00;;;;8397022;28;20231;-65
2022/09/13 07:18:27;;;;;;;34.45;16.67;;;;;17.30;96022.00;;;;8397282;28;20208;-65
2022/09/13 07:22:30;;;;;;;28.33;14.73;;;;;17.60;96016.00;;;;8396641;28;20224;-65
2022/09/13 07:27:07;;;;;;;24.75;15.02;;;;;17.60;96020.00;;;;8396893;28;20224;-65
2022/09/13 07:31:12;;;;;;;23.02;14.43;;;;;17.80;96028.00;;;;8396537;28;20216;-65
2022/09/13 07:35:17;;;;;;;20.58;13.43;;;;;18.00;96015.00;;;;8397047;28;20246;-65
2022/09/13 07:39:50;;;;;;;23.80;13.52;;;;;18.20;96006.00;;;;8395642;28;20220;-65
2022/09/13 07:43:54;;;;;;;25.58;13.98;;;;;18.40;96011.00;;;;8396472;28;20224;-65
2022/09/13 07:48:28;;;;;;;17.80;12.48;;;;;18.60;96024.00;;;;8395767;28;20238;-65
2022/09/13 07:52:36;;;;;;;20.38;12.73;;;;;18.70;96018.00;;;;8396186;28;20269;-65
2022/09/13 07:56:41;;;;;;;19.70;12.43;;;;;18.90;96032.00;;;;8396034;28;20224;-64
2022/09/13 08:01:14;;;;;;;16.02;11.38;;;;;19.20;96034.00;;;;8395926;28;20227;-65
2022/09/13 08:05:17;;;;;;;15.98;11.20;;;;;19.40;96041.00;;;;8395728;28;20235;-65
2022/09/13 08:09:22;;;;;;;18.88;12.32;;;;;19.60;96046.00;;;;8394210;28;20219;-65
2022/09/13 08:13:25;;;;;;;16.52;10.95;;;;;19.60;96043.00;;;;8394701;28;20220;-65
2022/09/13 08:17:29;;;;;;;16.13;10.82;;;;;19.70;96042.00;;;;8395256;28;20254;-65
2022/09/13 08:21:34;;;;;;;13.55;10.77;;;;;19.70;96038.00;;;;8394887;28;20223;-64
2022/09/13 08:25:39;;;;;;;14.35;9.43;;;;;19.70;96033.00;;;;8395363;28;20227;-64
2022/09/13 08:30:13;;;;;;;15.13;10.13;;;;;19.80;96026.00;;;;8395056;28;20234;-64
2022/09/13 08:34:16;;;;;;;11.95;9.40;;;;;20.10;96028.00;;;;8395133;28;20227;-64
2022/09/13 08:38:20;;;;;;;13.05;8.70;;;;;20.50;96028.00;;;;8395811;28;20224;-64
2022/09/13 08:43:02;;;;;;;12.13;8.70;;;;;21.00;96030.00;;;;8428494;28;20268;-65
2022/09/13 08:47:26;;;;;;;11.77;8.45;;;;;21.90;96027.00;;;;8427967;28;20212;-64
2022/09/13 08:51:35;;;;;;;10.00;7.75;;;;;22.70;96018.00;;;;8427951;28;20210;-64
2022/09/13 08:55:47;;;;;;;9.35;7.38;;;;;23.40;96014.00;;;;8428051;28;20560;-65
2022/09/13 08:59:59;;;;;;;9.70;7.45;;;;;23.70;96005.00;;;;8427661;28;20227;-64
2022/09/13 09:04:12;;;;;;;7.68;6.35;;;;;23.90;96010.00;;;;8427336;28;20220;-64
2022/09/13 09:08:30;;;;;;;7.05;6.35;;;;;24.00;96017.00;;;;8428398;28;20223;-64
2022/09/13 09:12:53;;;;;;;8.25;6.43;;;;;24.20;96000.00;;;;8426910;28;20216;-65
2022/09/13 09:17:02;;;;;;;7.90;6.43;;;;;24.40;96005.00;;;;8427676;28;20223;-64
2022/09/13 09:21:12;;;;;;;7.10;6.38;;;;;24.70;96007.00;;;;8433701;28;20223;-65
2022/09/13 09:25:40;;;;;;;5.80;5.18;;;;;25.10;96016.00;;;;8434042;28;20223;-65
2022/09/13 09:29:45;;;;;;;7.50;5.40;;;;;25.40;96026.00;;;;8433859;28;20243;-64
2022/09/13 09:34:07;;;;;;;5.43;4.90;;;;;25.70;96030.00;;;;8434257;28;20725;-64
2022/09/13 09:38:33;;;;;;;5.70;5.10;;;;;26.10;96028.00;;;;8433449;28;20226;-64
2022/09/13 09:42:41;;;;;;;6.20;4.57;;;;;26.60;96021.00;;;;8433375;28;20249;-64
2022/09/13 09:46:49;;;;;;;5.90;4.10;;;;;26.80;96006.00;;;;8433223;28;20231;-64
2022/09/13 09:50:57;;;;;;;4.13;3.72;;;;;26.90;96009.00;;;;8433345;28;20227;-65
2022/09/13 09:55:29;;;;;;;5.50;3.80;;;;;26.90;95999.00;;;;8432450;28;20250;-64
2022/09/13 09:59:33;;;;;;;11.63;4.13;;;;;27.20;95999.00;;;;8433407;28;20219;-65
2022/09/13 10:03:36;;;;;;;6.65;4.30;;;;;27.00;95989.00;;;;8433303;28;20215;-65
2022/09/13 10:08:24;;;;;;;6.35;4.07;;;;;27.50;95986.00;;;;8432882;28;20298;-65
2022/09/13 10:12:31;;;;;;;6.53;3.90;;;;;27.70;95989.00;;;;8432558;28;20235;-65
2022/09/13 10:16:34;;;;;;;4.88;4.47;;;;;27.40;95989.00;;;;8432150;28;20227;-65
2022/09/13 10:21:21;;;;;;;4.43;3.75;;;;;26.90;95986.00;;;;8432011;28;20219;-65
2022/09/13 10:25:26;;;;;;;3.88;3.58;;;;;26.50;95996.00;;;;8432188;28;20648;-65
2022/09/13 10:29:30;;;;;;;5.00;4.03;;;;;26.20;95987.00;;;;8430830;28;20223;-65
2022/09/13 10:33:37;;;;;;;4.45;3.60;;;;;25.90;95991.00;;;;8432155;28;20554;-65
2022/09/13 10:37:44;;;;;;;3.60;3.30;;;;;25.80;96006.00;;;;8431332;28;20218;-65
2022/09/13 10:41:53;;;;;;;7.25;3.67;;;;;25.90;96003.00;;;;8432060;28;20219;-64
2022/09/13 10:45:58;;;;;;;3.47;3.17;;;;;26.00;95990.00;;;;8431603;28;20211;-65
2022/09/13 10:50:20;;;;;;;4.28;3.78;;;;;26.00;95993.00;;;;8431304;28;20223;-65
2022/09/13 10:54:24;;;;;;;4.68;3.85;;;;;25.80;95979.00;;;;8431303;28;20227;-64
2022/09/13 10:58:29;;;;;;;3.83;3.53;;;;;25.60;95964.00;;;;8430939;28;20235;-64
2022/09/13 11:02:59;;;;;;;5.97;3.72;;;;;25.60;95971.00;;;;8431121;28;20726;-65
2022/09/13 11:07:15;;;;;;;5.07;3.85;;;;;25.60;95974.00;;;;8431052;28;20540;-65
2022/09/13 11:11:26;;;;;;;3.97;3.60;;;;;25.60;95965.00;;;;8431415;28;20230;-64
2022/09/13 11:15:40;;;;;;;3.90;3.13;;;;;25.50;95954.00;;;;8429641;28;20564;-65
2022/09/13 11:20:05;;;;;;;3.83;3.53;;;;;25.30;95959.00;;;;8430599;28;20227;-65
2022/09/13 11:24:39;;;;;;;7.10;3.53;;;;;25.20;95962.00;;;;8429213;28;20219;-65
2022/09/13 11:28:51;;;;;;;5.22;3.53;;;;;25.40;95962.00;;;;8430610;28;20577;-64
2022/09/13 11:33:27;;;;;;;3.55;3.25;;;;;25.30;95953.00;;;;8429697;28;20676;-65
2022/09/13 11:37:41;;;;;;;3.63;3.33;;;;;25.20;95954.00;;;;8429543;28;20652;-65
2022/09/13 11:41:57;;;;;;;3.60;3.30;;;;;25.30;95932.00;;;;8428815;28;20218;-65
2022/09/13 11:46:27;;;;;;;4.07;3.72;;;;;25.50;95924.00;;;;8429447;28;20302;-65
2022/09/13 11:50:44;;;;;;;5.22;3.80;;;;;25.50;95923.00;;;;8429223;28;20225;-65
2022/09/13 11:55:03;;;;;;;4.55;3.55;;;;;25.40;95928.00;;;;8429898;28;20510;-65
2022/09/13 11:59:18;;;;;;;6.55;3.65;;;;;25.90;95932.00;;;;8429049;28;20260;-65
2022/09/13 12:03:47;;;;;;;3.72;3.30;;;;;26.20;95946.00;;;;8429569;28;20234;-64
2022/09/13 12:07:57;;;;;;;3.92;3.58;;;;;26.70;95946.00;;;;8429011;28;20212;-64
2022/09/13 12:12:05;;;;;;;3.60;3.30;;;;;26.90;95938.00;;;;8429439;28;20222;-64
2022/09/13 12:16:12;;;;;;;7.07;3.28;;;;;27.20;95949.00;;;;8429119;28;20564;-65
2022/09/13 12:20:21;;;;;;;6.65;3.75;;;;;27.50;95967.00;;;;8428407;28;20214;-65
2022/09/13 12:24:40;;;;;;;7.07;3.85;;;;;27.60;95956.00;;;;8428214;28;20223;-65
2022/09/13 12:28:49;;;;;;;4.38;3.97;;;;;27.40;95940.00;;;;8428188;28;20230;-65
2022/09/13 12:33:20;;;;;;;4.55;3.83;;;;;27.20;95952.00;;;;8428391;28;20534;-65
2022/09/13 12:37:38;;;;;;;4.88;3.55;;;;;27.00;95967.00;;;;8428051;28;20246;-65
2022/09/13 12:41:52;;;;;;;4.43;3.88;;;;;26.90;95954.00;;;;8428125;28;20714;-65
2022/09/13 12:46:26;;;;;;;4.65;3.55;;;;;26.60;95956.00;;;;8428129;28;20570;-65
2022/09/13 12:50:47;;;;;;;4.75;3.40;;;;;26.50;95948.00;;;;8427981;28;20219;-65
2022/09/13 12:55:30;;;;;;;3.60;3.25;;;;;26.20;95945.00;;;;8426656;28;20242;-65
2022/09/13 13:00:01;;;;;;;4.45;4.05;;;;;26.00;95928.00;;;;8427947;28;20230;-65
2022/09/13 13:04:25;;;;;;;5.88;4.20;;;;;25.90;95936.00;;;;8427524;28;20621;-65
2022/09/13 13:08:30;;;;;;;4.68;3.85;;;;;25.80;95949.00;;;;8427691;28;20223;-64
2022/09/13 13:12:35;;;;;;;4.80;4.07;;;;;25.30;95941.00;;;;8427467;28;20215;-65
2022/09/13 13:16:40;;;;;;;6.45;4.28;;;;;24.90;95928.00;;;;8427678;28;20264;-64
2022/09/13 13:21:04;;;;;;;4.40;4.00;;;;;24.50;95917.00;;;;8427443;28;20281;-64
2022/09/13 13:25:32;;;;;;;6.82;4.07;;;;;24.40;95923.00;;;;8426992;28;20219;-65
2022/09/13 13:29:35;;;;;;;4.95;4.55;;;;;24.60;95934.00;;;;8427291;28;20215;-65
2022/09/13 13:34:15;;;;;;;4.00;3.70;;;;;24.80;95919.00;;;;8426833;28;20223;-64
2022/09/13 13:38:47;;;;;;;4.10;3.60;;;;;24.80;95908.00;;;;8427140;28;20219;-64
2022/09/13 13:42:51;;;;;;;5.47;3.85;;;;;24.80;95913.00;;;;8427556;28;20219;-65
2022/09/13 13:47:15;;;;;;;7.00;4.07;;;;;24.70;95903.00;;;;8426997;28;20222;-64
2022/09/13 13:56:46;;;;;;;6.03;3.97;;;;;24.20;95895.00;;;;8427067;28;20269;-63
2022/09/13 14:00:52;;;;;;;6.60;4.32;;;;;24.10;95901.00;;;;8426634;28;20220;-63
2022/09/13 14:05:30;;;;;;;10.82;4.32;;;;;24.10;95893.00;;;;8429148;28;20227;-63
2022/09/13 14:09:39;;;;;;;5.65;4.32;;;;;24.20;95888.00;;;;8432490;28;20211;-65
2022/09/13 14:13:56;;;;;;;5.40;4.70;;;;;24.20;95885.00;;;;8432447;28;20227;-64
2022/09/13 14:18:38;;;;;;;4.70;4.18;;;;;24.10;95884.00;;;;8432354;28;20695;-63
2022/09/13 14:22:41;;;;;;;7.30;4.28;;;;;24.10;95881.00;;;;8432088;28;20239;-64
2022/09/13 14:26:48;;;;;;;5.10;4.07;;;;;24.10;95876.00;;;;8432695;28;20273;-63
2022/09/13 14:31:23;;;;;;;5.97;4.00;;;;;24.10;95868.00;;;;8431309;28;20243;-63
2022/09/13 14:35:29;;;;;;;4.70;3.92;;;;;24.20;95875.00;;;;8431811;28;20227;-63
2022/09/13 14:39:32;;;;;;;4.32;3.92;;;;;24.20;95881.00;;;;8432135;28;20223;-63
2022/09/13 14:44:13;;;;;;;6.88;4.07;;;;;24.20;95865.00;;;;8431295;28;20211;-64
2022/09/13 14:48:30;;;;;;;4.55;3.72;;;;;24.20;95877.00;;;;8431694;28;20231;-63
2022/09/13 14:52:36;;;;;;;6.82;3.90;;;;;24.00;95866.00;;;;8432142;28;20630;-63
2022/09/13 14:56:42;;;;;;;5.10;3.85;;;;;23.90;95863.00;;;;8430652;28;20226;-66
2022/09/13 15:00:51;;;;;;;5.20;4.22;;;;;23.70;95867.00;;;;8430828;28;20288;-64
2022/09/13 15:04:57;;;;;;;4.57;3.90;;;;;23.60;95859.00;;;;8431436;28;20246;-63
2022/09/13 15:09:32;;;;;;;6.97;5.28;;;;;23.50;95847.00;;;;8431233;28;20310;-63
2022/09/13 15:13:36;;;;;;;4.50;4.10;;;;;23.60;95850.00;;;;8430283;28;20215;-63
2022/09/13 15:17:52;;;;;;;7.90;5.60;;;;;23.70;95842.00;;;;8430361;28;20247;-63
2022/09/13 15:22:15;;;;;;;7.90;4.00;;;;;23.90;95839.00;;;;8429795;28;20246;-64
2022/09/13 15:26:30;;;;;;;4.22;3.83;;;;;24.00;95833.00;;;;8430797;28;20659;-63
2022/09/13 15:30:40;;;;;;;3.75;3.40;;;;;24.00;95835.00;;;;8430119;28;20215;-63
2022/09/13 15:35:17;;;;;;;4.90;3.40;;;;;23.90;95834.00;;;;8429857;28;20223;-63
2022/09/13 15:39:22;;;;;;;5.10;4.00;;;;;23.90;95833.00;;;;8407713;28;20219;-64
2022/09/13 15:43:25;;;;;;;4.20;3.72;;;;;23.90;95827.00;;;;8396361;28;20718;-63
2022/09/13 15:47:28;;;;;;;3.92;3.63;;;;;23.90;95828.00;;;;8395153;28;20219;-63
2022/09/13 15:52:05;;;;;;;4.47;4.03;;;;;23.80;95841.00;;;;8396591;28;20226;-63
2022/09/13 15:56:15;;;;;;;7.68;3.60;;;;;23.80;95831.00;;;;8395111;28;20220;-63
2022/09/13 16:00:20;;;;;;;5.18;3.50;;;;;23.70;95833.00;;;;8395911;28;20219;-64
2022/09/13 16:04:54;;;;;;;6.00;3.60;;;;;23.60;95830.00;;;;8395107;28;20277;-63
2022/09/13 16:08:59;;;;;;;4.85;4.10;;;;;23.50;95814.00;;;;8395674;28;20255;-63
2022/09/13 16:13:04;;;;;;;6.43;3.70;;;;;23.30;95817.00;;;;8395215;28;20219;-63
2022/09/13 16:17:11;;;;;;;5.55;3.60;;;;;23.20;95814.00;;;;8395165;28;20223;-63
2022/09/13 16:21:42;;;;;;;8.70;3.67;;;;;23.10;95817.00;;;;8394849;28;20220;-63
2022/09/13 16:25:46;;;;;;;7.00;3.78;;;;;23.10;95813.00;;;;8394710;28;20239;-64
2022/09/13 16:29:50;;;;;;;4.97;3.80;;;;;23.00;95825.00;;;;8393647;28;20677;-64
2022/09/13 16:33:54;;;;;;;7.60;3.75;;;;;22.90;95816.00;;;;8395030;28;20223;-64
2022/09/13 16:37:57;;;;;;;4.63;4.18;;;;;22.90;95806.00;;;;8394523;28;20725;-63
2022/09/13 16:42:00;;;;;;;3.97;3.67;;;;;22.80;95809.00;;;;8394425;28;20310;-64
2022/09/13 16:46:08;;;;;;;5.43;3.95;;;;;22.80;95816.00;;;;8394457;28;20219;-64
2022/09/13 16:50:11;;;;;;;6.45;3.97;;;;;22.60;95807.00;;;;8394470;28;20298;-63
2022/09/13 16:54:14;;;;;;;7.60;3.80;;;;;22.60;95811.00;;;;8394316;28;20219;-63
2022/09/13 16:58:52;;;;;;;5.15;3.85;;;;;22.40;95808.00;;;;8394343;28;20228;-63
2022/09/13 17:02:56;;;;;;;12.40;3.70;;;;;22.40;95803.00;;;;8394449;28;20223;-63
2022/09/13 17:07:01;;;;;;;4.38;4.00;;;;;22.30;95812.00;;;;8394268;28;20319;-63
2022/09/13 17:11:06;;;;;;;4.25;3.85;;;;;22.20;95804.00;;;;8394487;28;20220;-63
2022/09/13 17:15:43;;;;;;;4.65;4.05;;;;;22.00;95802.00;;;;8393419;28;20239;-64
2022/09/13 17:19:48;;;;;;;4.43;3.88;;;;;21.90;95787.00;;;;8393825;28;20661;-63
2022/09/13 17:23:51;;;;;;;6.68;3.83;;;;;21.70;95791.00;;;;8394103;28;20216;-63
2022/09/13 17:27:55;;;;;;;5.07;3.95;;;;;21.60;95798.00;;;;8394335;28;20224;-63
2022/09/13 17:31:58;;;;;;;4.72;3.78;;;;;21.50;95788.00;;;;8393722;28;20215;-63
2022/09/13 17:36:06;;;;;;;8.15;4.18;;;;;21.30;95788.00;;;;8393520;28;20224;-63
2022/09/13 17:40:09;;;;;;;6.28;3.97;;;;;21.20;95787.00;;;;8397018;28;20216;-63
2022/09/13 17:44:46;;;;;;;7.50;3.75;;;;;21.10;95792.00;;;;8399543;28;20247;-63
2022/09/13 17:48:51;;;;;;;4.60;4.07;;;;;21.00;95791.00;;;;8399372;28;20215;-63
2022/09/13 17:52:55;;;;;;;5.43;4.15;;;;;20.90;95792.00;;;;8399640;28;20258;-63
2022/09/13 17:56:59;;;;;;;7.57;3.85;;;;;20.90;95789.00;;;;8399702;28;20677;-63
2022/09/13 18:01:36;;;;;;;7.13;4.05;;;;;20.70;95778.00;;;;8399393;28;20227;-63
2022/09/13 18:05:39;;;;;;;8.40;4.78;;;;;20.60;95776.00;;;;8399531;28;20614;-63
2022/09/13 18:09:44;;;;;;;5.50;4.57;;;;;20.60;95776.00;;;;8398974;28;20564;-64
2022/09/13 18:13:47;;;;;;;6.43;4.57;;;;;20.40;95767.00;;;;8399216;28;20227;-63
2022/09/13 18:17:50;;;;;;;6.90;5.03;;;;;20.40;95761.00;;;;8398517;28;20234;-63
2022/09/13 18:21:54;;;;;;;16.45;7.57;;;;;20.40;95763.00;;;;8403032;28;20224;-63
2022/09/13 18:26:27;;;;;;;8.93;6.70;;;;;20.40;95763.00;;;;8431927;28;20227;-63
2022/09/13 18:30:32;;;;;;;12.88;7.88;;;;;20.40;95764.00;;;;8432790;28;20215;-63
2022/09/13 18:34:35;;;;;;;10.88;6.88;;;;;20.40;95769.00;;;;8431797;28;20211;-63
2022/09/13 18:39:11;;;;;;;11.57;8.88;;;;;20.40;95759.00;;;;8432063;28;20227;-63
2022/09/13 18:43:15;;;;;;;13.52;9.25;;;;;20.40;95764.00;;;;8431566;28;20215;-63
2022/09/13 18:47:19;;;;;;;13.55;8.25;;;;;20.40;95757.00;;;;8432376;28;20219;-63
2022/09/13 18:51:25;;;;;;;12.43;7.93;;;;;20.40;95755.00;;;;8430019;28;20223;-63
2022/09/13 18:56:02;;;;;;;12.88;9.48;;;;;20.40;95757.00;;;;8431442;28;20643;-63
2022/09/13 19:00:06;;;;;;;12.77;8.45;;;;;20.30;95756.00;;;;8430972;28;20277;-63
2022/09/13 19:04:13;;;;;;;11.73;7.32;;;;;20.40;95749.00;;;;8431203;28;20230;-63
2022/09/13 19:08:48;;;;;;;14.05;7.10;;;;;20.30;95756.00;;;;8430458;28;20309;-63
2022/09/13 19:12:51;;;;;;;10.45;7.22;;;;;20.30;95758.00;;;;8430903;28;20230;-63
2022/09/13 19:16:59;;;;;;;13.65;8.60;;;;;20.30;95759.00;;;;8429724;28;20227;-63
2022/09/13 19:21:32;;;;;;;11.90;8.50;;;;;20.20;95758.00;;;;8430269;28;20219;-63
2022/09/13 19:25:35;;;;;;;12.38;8.60;;;;;20.20;95768.00;;;;8430452;28;20245;-62
2022/09/13 19:29:38;;;;;;;8.98;7.60;;;;;20.20;95758.00;;;;8431013;28;20215;-63
2022/09/13 19:34:16;;;;;;;13.10;7.90;;;;;20.10;95754.00;;;;8429815;28;20233;-63
2022/09/13 19:38:20;;;;;;;17.20;10.73;;;;;20.00;95757.00;;;;8429817;28;20223;-63
2022/09/13 19:42:24;;;;;;;19.45;10.43;;;;;19.90;95756.00;;;;8428959;28;20269;-63
2022/09/13 19:46:59;;;;;;;16.17;9.77;;;;;19.90;95756.00;;;;8430092;28;20688;-62
2022/09/13 19:51:25;;;;;;;13.40;8.45;;;;;19.80;95760.00;;;;8429414;28;20226;-63
2022/09/13 19:55:31;;;;;;;11.77;8.18;;;;;19.80;95773.00;;;;8429444;28;20222;-63
2022/09/13 20:00:06;;;;;;;17.02;11.20;;;;;19.70;95767.00;;;;8429924;28;20218;-63
2022/09/13 20:04:11;;;;;;;14.85;9.02;;;;;19.60;95775.00;;;;8428539;28;20230;-63
2022/09/13 20:08:14;;;;;;;18.15;10.40;;;;;19.50;95767.00;;;;8429255;28;20241;-63
2022/09/13 20:12:22;;;;;;;20.88;11.38;;;;;19.40;95759.00;;;;8428186;28;20215;-63
2022/09/13 20:16:27;;;;;;;18.63;10.52;;;;;19.40;95765.00;;;;8428883;28;20230;-63
2022/09/13 20:20:30;;;;;;;18.88;10.63;;;;;19.30;95748.00;;;;8428971;28;20215;-62
2022/09/13 20:24:33;;;;;;;22.00;11.18;;;;;19.20;95754.00;;;;8428539;28;20219;-63
2022/09/13 20:28:38;;;;;;;16.20;9.68;;;;;19.10;95743.00;;;;8428726;28;20223;-63
2022/09/13 20:32:41;;;;;;;14.90;9.10;;;;;19.00;95738.00;;;;8428000;28;20226;-63
2022/09/13 20:37:18;;;;;;;16.65;10.70;;;;;18.80;95746.00;;;;8428824;28;20560;-62
2022/09/13 20:41:22;;;;;;;17.38;10.40;;;;;18.60;95746.00;;;;8426644;28;20212;-63
2022/09/13 20:45:26;;;;;;;18.60;10.35;;;;;18.60;95747.00;;;;8427928;28;20331;-63
2022/09/13 20:49:29;;;;;;;16.27;9.65;;;;;18.50;95746.00;;;;8427594;28;20222;-62
2022/09/13 20:53:33;;;;;;;14.73;10.90;;;;;18.40;95730.00;;;;8428078;28;20296;-63
2022/09/13 20:57:36;;;;;;;16.48;10.35;;;;;18.40;95745.00;;;;8426967;28;20229;-63
2022/09/13 21:01:41;;;;;;;17.67;10.50;;;;;18.30;95732.00;;;;8427878;28;20234;-62